Zim Panama — VSWW5 — position and weather

sailwx.info

Track history (hours):
 
Tides and Currents Weather Stations Pressure Air Temp Water Temp Dewpoint Dewpoint Depression Visibility Wind Speed Wind Dir Waves Ship Positions

Zim Panama

Last reported at 2014-Oct-01 03:30 UTC. Time now 2014-Oct-01 04:00 UTC.
Position N 40°41' W 074°09'.

Length 294.12 m; beam 32.2 m; draft 9.45 m.

Type: Ship (hazmat cat C). MMSI: 235474000.

Date/timePositionNaut miles runAvg speedWind from/ knotsBaromVisibWave heightAir tempDewpointWater temp
2014-Oct-01 03:30N 40°41' W 074°09'0 0.0
2014-Oct-01 02:18N 40°41' W 074°09'0 0.0
2014-Oct-01 01:33N 40°41' W 074°09'0 0.0
2014-Oct-01 00:18N 40°41' W 074°09'0 0.0
2014-Sep-30 23:33N 40°41' W 074°09'0 0.0
2014-Sep-30 22:33N 40°41' W 074°09'1 0.8
2014-Sep-30 21:33N 40°40' W 074°08'3 3.4
2014-Sep-30 20:33N 40°39' W 074°04'1312.2
2014-Sep-30 19:30N 40°29' W 073°54'7 6.7
2014-Sep-30 18:31N 40°29' W 073°45'0 0.1
2014-Sep-30 17:31N 40°29' W 073°45'0 0.0
2014-Sep-30 16:28N 40°29' W 073°45'0 0.1
2014-Sep-30 15:33N 40°29' W 073°45'2510.4
2014-Sep-30 13:08N 40°30' W 073°12'1017.8
2014-Sep-30 12:33N 40°30' W 072°58'1818.5
2014-Sep-30 11:33N 40°31' W 072°34'1818.2
2014-Sep-30 10:33N 40°31' W 072°10'1818.5
2014-Sep-30 09:33N 40°32' W 071°46'1918.5
2014-Sep-30 08:33N 40°32' W 071°21'1818.4
2014-Sep-30 07:33N 40°33' W 070°57'1818.4
2014-Sep-30 06:33N 40°33' W 070°33'1918.7
2014-Sep-30 05:33N 40°34' W 070°09'1918.7
2014-Sep-30 04:33N 40°34' W 069°44'1919.1
2014-Sep-30 03:34N 40°35' W 069°19'1919.2
2014-Sep-30 02:33N 40°32' W 068°54'2219.2
2014-Sep-30 01:23N 40°28' W 068°25'1619.6
2014-Sep-30 00:34N 40°25' W 068°04'2119.1
2014-Sep-29 23:29N 40°21' W 067°38'1920.1
2014-Sep-29 22:32N 40°17' W 067°13'1919.4
2014-Sep-29 21:33N 40°13' W 066°49'6418.8
2014-Sep-29 18:11N 40°04' W 065°27'28416.1
2014-Sep-29 00:31N 40°38' W 059°17'  
2014-Sep-22 13:14N 35°58' W 005°30'913.2
2014-Sep-22 12:31N 36°02' W 005°19'23215.1
2014-Sep-21 21:13N 37°24' W 000°49'1516.9
2014-Sep-21 20:21N 37°33' W 000°35'1316.4
2014-Sep-21 19:33N 37°44' W 000°25'2116.5
2014-Sep-21 18:18N 38°01' W 000°11'1416.0
2014-Sep-21 17:26N 38°13' W 000°02'1916.4
2014-Sep-21 16:16N 38°29' E 000°11'2514.5
2014-Sep-21 14:32N 38°54' E 000°14'3916.9
2014-Sep-21 12:13N 39°25' W 000°17'2 3.5
2014-Sep-21 11:31N 39°26' W 000°19'0 0.0
2014-Sep-21 10:31N 39°26' W 000°19'0 0.0
2014-Sep-21 09:31N 39°26' W 000°19'0 0.0
2014-Sep-21 08:31N 39°26' W 000°19'0 0.0
2014-Sep-21 07:31N 39°26' W 000°19'0 0.0
2014-Sep-21 06:31N 39°26' W 000°19'0 0.0
2014-Sep-21 05:31N 39°26' W 000°19'0 0.0
2014-Sep-21 04:31N 39°26' W 000°19'0 0.0
2014-Sep-21 03:34N 39°26' W 000°19'  
Track history (hours):
 
Tides and Currents Weather Stations Pressure Air Temp Water Temp Dewpoint Dewpoint Depression Visibility Wind Speed Wind Dir Waves Ship Positions

Zim Panama

Last reported at 2014-Oct-01 03:30 UTC. Time now 2014-Oct-01 04:00 UTC.
Position N 40°41' W 074°09'.

Length 294.12 m; beam 32.2 m; draft 9.45 m.

Type: Ship (hazmat cat C). MMSI: 235474000.

Date/timePositionNaut miles runAvg speedWind from/ knotsBaromVisibWave heightAir tempDewpointWater temp
2014-Oct-01 03:30N 40°41' W 074°09'0 0.0
2014-Oct-01 02:18N 40°41' W 074°09'0 0.0
2014-Oct-01 01:33N 40°41' W 074°09'0 0.0
2014-Oct-01 00:18N 40°41' W 074°09'0 0.0
2014-Sep-30 23:33N 40°41' W 074°09'0 0.0
2014-Sep-30 22:33N 40°41' W 074°09'1 0.8
2014-Sep-30 21:33N 40°40' W 074°08'3 3.4
2014-Sep-30 20:33N 40°39' W 074°04'1312.2
2014-Sep-30 19:30N 40°29' W 073°54'7 6.7
2014-Sep-30 18:31N 40°29' W 073°45'0 0.1
2014-Sep-30 17:31N 40°29' W 073°45'0 0.0
2014-Sep-30 16:28N 40°29' W 073°45'0 0.1
2014-Sep-30 15:33N 40°29' W 073°45'2510.4
2014-Sep-30 13:08N 40°30' W 073°12'1017.8
2014-Sep-30 12:33N 40°30' W 072°58'1818.5
2014-Sep-30 11:33N 40°31' W 072°34'1818.2
2014-Sep-30 10:33N 40°31' W 072°10'1818.5
2014-Sep-30 09:33N 40°32' W 071°46'1918.5
2014-Sep-30 08:33N 40°32' W 071°21'1818.4
2014-Sep-30 07:33N 40°33' W 070°57'1818.4
2014-Sep-30 06:33N 40°33' W 070°33'1918.7
2014-Sep-30 05:33N 40°34' W 070°09'1918.7
2014-Sep-30 04:33N 40°34' W 069°44'1919.1
2014-Sep-30 03:34N 40°35' W 069°19'1919.2
2014-Sep-30 02:33N 40°32' W 068°54'2219.2
2014-Sep-30 01:23N 40°28' W 068°25'1619.6
2014-Sep-30 00:34N 40°25' W 068°04'2119.1
2014-Sep-29 23:29N 40°21' W 067°38'1920.1
2014-Sep-29 22:32N 40°17' W 067°13'1919.4
2014-Sep-29 21:33N 40°13' W 066°49'6418.8
2014-Sep-29 18:11N 40°04' W 065°27'28416.1
2014-Sep-29 00:31N 40°38' W 059°17'  
2014-Sep-22 13:14N 35°58' W 005°30'913.2
2014-Sep-22 12:31N 36°02' W 005°19'23215.1
2014-Sep-21 21:13N 37°24' W 000°49'1516.9
2014-Sep-21 20:21N 37°33' W 000°35'1316.4
2014-Sep-21 19:33N 37°44' W 000°25'2116.5
2014-Sep-21 18:18N 38°01' W 000°11'1416.0
2014-Sep-21 17:26N 38°13' W 000°02'1916.4
2014-Sep-21 16:16N 38°29' E 000°11'2514.5
2014-Sep-21 14:32N 38°54' E 000°14'3916.9
2014-Sep-21 12:13N 39°25' W 000°17'2 3.5
2014-Sep-21 11:31N 39°26' W 000°19'0 0.0
2014-Sep-21 10:31N 39°26' W 000°19'0 0.0
2014-Sep-21 09:31N 39°26' W 000°19'0 0.0
2014-Sep-21 08:31N 39°26' W 000°19'0 0.0
2014-Sep-21 07:31N 39°26' W 000°19'0 0.0
2014-Sep-21 06:31N 39°26' W 000°19'0 0.0
2014-Sep-21 05:31N 39°26' W 000°19'0 0.0
2014-Sep-21 04:31N 39°26' W 000°19'0 0.0
2014-Sep-21 03:34N 39°26' W 000°19'  

Dump ship's entire track history